sensor_id;sensor_type;location;lat;lon;timestamp;P1;durP1;ratioP1;P2;durP2;ratioP2
7047;SDS011;3565;53.254;10.352;2022-09-01T00:02:15;2.63;;;1.60;;
7047;SDS011;3565;53.254;10.352;2022-09-01T00:04:44;2.93;;;1.87;;
7047;SDS011;3565;53.254;10.352;2022-09-01T00:07:14;1.63;;;1.53;;
7047;SDS011;3565;53.254;10.352;2022-09-01T00:09:42;1.90;;;1.70;;
7047;SDS011;3565;53.254;10.352;2022-09-01T00:12:11;1.90;;;1.80;;
7047;SDS011;3565;53.254;10.352;2022-09-01T00:14:40;2.57;;;1.60;;
7047;SDS011;3565;53.254;10.352;2022-09-01T00:17:11;3.87;;;1.87;;
7047;SDS011;3565;53.254;10.352;2022-09-01T00:19:40;2.03;;;1.83;;
7047;SDS011;3565;53.254;10.352;2022-09-01T00:22:08;3.17;;;1.90;;
7047;SDS011;3565;53.254;10.352;2022-09-01T00:24:37;2.40;;;2.07;;
7047;SDS011;3565;53.254;10.352;2022-09-01T00:27:06;1.63;;;1.53;;
7047;SDS011;3565;53.254;10.352;2022-09-01T00:29:34;1.63;;;1.53;;
7047;SDS011;3565;53.254;10.352;2022-09-01T00:32:03;1.80;;;1.70;;
7047;SDS011;3565;53.254;10.352;2022-09-01T00:34:32;2.93;;;1.80;;
7047;SDS011;3565;53.254;10.352;2022-09-01T00:37:00;1.77;;;1.63;;
7047;SDS011;3565;53.254;10.352;2022-09-01T00:39:29;2.70;;;1.97;;
7047;SDS011;3565;53.254;10.352;2022-09-01T00:41:58;2.00;;;1.70;;
7047;SDS011;3565;53.254;10.352;2022-09-01T00:44:27;2.00;;;1.57;;
7047;SDS011;3565;53.254;10.352;2022-09-01T00:46:57;1.90;;;1.77;;
7047;SDS011;3565;53.254;10.352;2022-09-01T00:49:27;1.93;;;1.83;;
7047;SDS011;3565;53.254;10.352;2022-09-01T00:51:58;2.33;;;2.00;;
7047;SDS011;3565;53.254;10.352;2022-09-01T00:54:28;2.00;;;1.90;;
7047;SDS011;3565;53.254;10.352;2022-09-01T00:56:56;1.93;;;1.83;;
7047;SDS011;3565;53.254;10.352;2022-09-01T00:59:26;2.00;;;1.80;;
7047;SDS011;3565;53.254;10.352;2022-09-01T01:01:57;2.10;;;1.90;;
7047;SDS011;3565;53.254;10.352;2022-09-01T01:04:25;1.90;;;1.80;;
7047;SDS011;3565;53.254;10.352;2022-09-01T01:06:54;2.00;;;1.50;;
7047;SDS011;3565;53.254;10.352;2022-09-01T01:09:27;2.10;;;1.90;;
7047;SDS011;3565;53.254;10.352;2022-09-01T01:11:57;2.30;;;2.10;;
7047;SDS011;3565;53.254;10.352;2022-09-01T01:14:26;2.87;;;2.23;;
7047;SDS011;3565;53.254;10.352;2022-09-01T01:16:59;2.50;;;2.30;;
7047;SDS011;3565;53.254;10.352;2022-09-01T01:19:30;1.93;;;1.83;;
7047;SDS011;3565;53.254;10.352;2022-09-01T01:22:17;2.00;;;1.90;;
7047;SDS011;3565;53.254;10.352;2022-09-01T01:25:03;2.30;;;2.10;;
7047;SDS011;3565;53.254;10.352;2022-09-01T01:27:34;2.20;;;2.00;;
7047;SDS011;3565;53.254;10.352;2022-09-01T01:30:04;2.50;;;2.20;;
7047;SDS011;3565;53.254;10.352;2022-09-01T01:32:35;2.30;;;2.10;;
7047;SDS011;3565;53.254;10.352;2022-09-01T01:35:08;2.50;;;2.30;;
7047;SDS011;3565;53.254;10.352;2022-09-01T01:37:38;2.73;;;2.20;;
7047;SDS011;3565;53.254;10.352;2022-09-01T01:40:08;2.13;;;1.93;;
7047;SDS011;3565;53.254;10.352;2022-09-01T01:42:38;2.37;;;2.17;;
7047;SDS011;3565;53.254;10.352;2022-09-01T01:45:08;2.23;;;1.97;;
7047;SDS011;3565;53.254;10.352;2022-09-01T01:47:38;2.20;;;1.90;;
7047;SDS011;3565;53.254;10.352;2022-09-01T01:50:08;2.57;;;1.90;;
7047;SDS011;3565;53.254;10.352;2022-09-01T01:52:36;2.33;;;1.93;;
7047;SDS011;3565;53.254;10.352;2022-09-01T01:55:06;2.30;;;2.10;;
7047;SDS011;3565;53.254;10.352;2022-09-01T01:57:37;2.30;;;2.10;;
7047;SDS011;3565;53.254;10.352;2022-09-01T02:00:06;2.10;;;2.00;;
7047;SDS011;3565;53.254;10.352;2022-09-01T02:02:37;2.27;;;2.07;;
7047;SDS011;3565;53.254;10.352;2022-09-01T02:05:06;1.90;;;1.80;;
7047;SDS011;3565;53.254;10.352;2022-09-01T02:07:35;2.50;;;2.30;;
7047;SDS011;3565;53.254;10.352;2022-09-01T02:10:05;2.40;;;2.20;;
7047;SDS011;3565;53.254;10.352;2022-09-01T02:12:34;2.20;;;2.00;;
7047;SDS011;3565;53.254;10.352;2022-09-01T02:15:05;2.43;;;2.17;;
7047;SDS011;3565;53.254;10.352;2022-09-01T02:17:33;2.23;;;2.13;;
7047;SDS011;3565;53.254;10.352;2022-09-01T02:20:02;3.50;;;2.33;;
7047;SDS011;3565;53.254;10.352;2022-09-01T02:22:33;2.27;;;2.17;;
7047;SDS011;3565;53.254;10.352;2022-09-01T02:25:03;2.40;;;2.20;;
7047;SDS011;3565;53.254;10.352;2022-09-01T02:27:32;3.07;;;2.17;;
7047;SDS011;3565;53.254;10.352;2022-09-01T02:30:02;2.60;;;2.40;;
7047;SDS011;3565;53.254;10.352;2022-09-01T02:32:32;3.83;;;2.63;;
7047;SDS011;3565;53.254;10.352;2022-09-01T02:35:01;2.60;;;2.40;;
7047;SDS011;3565;53.254;10.352;2022-09-01T02:37:31;2.47;;;2.10;;
7047;SDS011;3565;53.254;10.352;2022-09-01T02:40:01;2.40;;;2.20;;
7047;SDS011;3565;53.254;10.352;2022-09-01T02:42:29;2.50;;;2.30;;
7047;SDS011;3565;53.254;10.352;2022-09-01T02:44:57;2.53;;;2.33;;
7047;SDS011;3565;53.254;10.352;2022-09-01T02:47:26;2.90;;;2.53;;
7047;SDS011;3565;53.254;10.352;2022-09-01T02:49:54;2.60;;;2.40;;
7047;SDS011;3565;53.254;10.352;2022-09-01T02:52:24;5.37;;;2.63;;
7047;SDS011;3565;53.254;10.352;2022-09-01T02:54:52;2.90;;;2.60;;
7047;SDS011;3565;53.254;10.352;2022-09-01T02:57:22;2.77;;;2.53;;
7047;SDS011;3565;53.254;10.352;2022-09-01T02:59:50;3.10;;;2.40;;
7047;SDS011;3565;53.254;10.352;2022-09-01T03:02:22;2.17;;;2.07;;
7047;SDS011;3565;53.254;10.352;2022-09-01T03:04:52;3.23;;;2.20;;
7047;SDS011;3565;53.254;10.352;2022-09-01T03:07:21;3.03;;;2.50;;
7047;SDS011;3565;53.254;10.352;2022-09-01T03:09:50;2.60;;;2.40;;
7047;SDS011;3565;53.254;10.352;2022-09-01T03:12:18;2.60;;;2.40;;
7047;SDS011;3565;53.254;10.352;2022-09-01T03:14:47;2.77;;;2.57;;
7047;SDS011;3565;53.254;10.352;2022-09-01T03:17:15;2.70;;;2.50;;
7047;SDS011;3565;53.254;10.352;2022-09-01T03:19:43;2.60;;;2.40;;
7047;SDS011;3565;53.254;10.352;2022-09-01T03:22:12;2.90;;;2.70;;
7047;SDS011;3565;53.254;10.352;2022-09-01T03:24:41;3.40;;;2.60;;
7047;SDS011;3565;53.254;10.352;2022-09-01T03:27:09;2.60;;;2.40;;
7047;SDS011;3565;53.254;10.352;2022-09-01T03:29:37;2.50;;;2.30;;
7047;SDS011;3565;53.254;10.352;2022-09-01T03:32:06;2.63;;;2.43;;
7047;SDS011;3565;53.254;10.352;2022-09-01T03:34:34;2.80;;;2.60;;
7047;SDS011;3565;53.254;10.352;2022-09-01T03:37:03;2.70;;;2.50;;
7047;SDS011;3565;53.254;10.352;2022-09-01T03:39:33;2.90;;;2.60;;
7047;SDS011;3565;53.254;10.352;2022-09-01T03:42:01;3.20;;;2.50;;
7047;SDS011;3565;53.254;10.352;2022-09-01T03:44:29;4.07;;;2.77;;
7047;SDS011;3565;53.254;10.352;2022-09-01T03:46:59;2.63;;;2.43;;
7047;SDS011;3565;53.254;10.352;2022-09-01T03:49:28;3.00;;;2.63;;
7047;SDS011;3565;53.254;10.352;2022-09-01T03:51:57;3.30;;;2.63;;
7047;SDS011;3565;53.254;10.352;2022-09-01T03:54:26;3.47;;;2.77;;
7047;SDS011;3565;53.254;10.352;2022-09-01T03:56:56;2.70;;;2.50;;
7047;SDS011;3565;53.254;10.352;2022-09-01T03:59:25;2.80;;;2.50;;
7047;SDS011;3565;53.254;10.352;2022-09-01T04:01:55;3.57;;;2.60;;
7047;SDS011;3565;53.254;10.352;2022-09-01T04:04:24;2.80;;;2.60;;
7047;SDS011;3565;53.254;10.352;2022-09-01T04:06:52;2.90;;;2.70;;
7047;SDS011;3565;53.254;10.352;2022-09-01T04:09:20;3.27;;;2.53;;
7047;SDS011;3565;53.254;10.352;2022-09-01T04:11:49;2.87;;;2.67;;
7047;SDS011;3565;53.254;10.352;2022-09-01T04:14:17;3.93;;;2.43;;
7047;SDS011;3565;53.254;10.352;2022-09-01T04:16:46;3.03;;;2.83;;
7047;SDS011;3565;53.254;10.352;2022-09-01T04:19:33;3.07;;;2.77;;
7047;SDS011;3565;53.254;10.352;2022-09-01T04:22:03;3.00;;;2.80;;
7047;SDS011;3565;53.254;10.352;2022-09-01T04:24:31;3.07;;;2.70;;
7047;SDS011;3565;53.254;10.352;2022-09-01T04:27:01;2.87;;;2.63;;
7047;SDS011;3565;53.254;10.352;2022-09-01T04:29:30;3.73;;;2.77;;
7047;SDS011;3565;53.254;10.352;2022-09-01T04:31:59;3.07;;;2.80;;
7047;SDS011;3565;53.254;10.352;2022-09-01T04:34:29;2.80;;;2.60;;
7047;SDS011;3565;53.254;10.352;2022-09-01T04:37:01;3.40;;;3.03;;
7047;SDS011;3565;53.254;10.352;2022-09-01T04:39:31;3.13;;;2.90;;
7047;SDS011;3565;53.254;10.352;2022-09-01T04:42:01;3.63;;;3.33;;
7047;SDS011;3565;53.254;10.352;2022-09-01T04:44:32;3.30;;;3.00;;
7047;SDS011;3565;53.254;10.352;2022-09-01T04:47:00;3.10;;;2.90;;
7047;SDS011;3565;53.254;10.352;2022-09-01T04:49:29;3.53;;;3.23;;
7047;SDS011;3565;53.254;10.352;2022-09-01T04:52:00;3.10;;;2.80;;
7047;SDS011;3565;53.254;10.352;2022-09-01T04:54:28;3.53;;;2.93;;
7047;SDS011;3565;53.254;10.352;2022-09-01T04:56:58;3.57;;;3.27;;
7047;SDS011;3565;53.254;10.352;2022-09-01T04:59:27;3.40;;;3.10;;
7047;SDS011;3565;53.254;10.352;2022-09-01T05:01:57;3.83;;;3.40;;
7047;SDS011;3565;53.254;10.352;2022-09-01T05:04:27;3.30;;;3.00;;
7047;SDS011;3565;53.254;10.352;2022-09-01T05:06:58;2.97;;;2.77;;
7047;SDS011;3565;53.254;10.352;2022-09-01T05:09:29;3.70;;;3.40;;
7047;SDS011;3565;53.254;10.352;2022-09-01T05:11:57;3.57;;;3.27;;
7047;SDS011;3565;53.254;10.352;2022-09-01T05:14:29;3.73;;;3.33;;
7047;SDS011;3565;53.254;10.352;2022-09-01T05:16:58;3.80;;;3.50;;
7047;SDS011;3565;53.254;10.352;2022-09-01T05:19:28;4.03;;;3.73;;
7047;SDS011;3565;53.254;10.352;2022-09-01T05:21:56;3.50;;;3.20;;
7047;SDS011;3565;53.254;10.352;2022-09-01T05:24:27;4.20;;;3.50;;
7047;SDS011;3565;53.254;10.352;2022-09-01T05:26:57;4.03;;;3.33;;
7047;SDS011;3565;53.254;10.352;2022-09-01T05:29:26;4.40;;;3.80;;
7047;SDS011;3565;53.254;10.352;2022-09-01T05:31:55;4.00;;;3.70;;
7047;SDS011;3565;53.254;10.352;2022-09-01T05:34:24;3.73;;;3.43;;
7047;SDS011;3565;53.254;10.352;2022-09-01T05:36:54;4.03;;;3.73;;
7047;SDS011;3565;53.254;10.352;2022-09-01T05:39:24;4.40;;;3.60;;
7047;SDS011;3565;53.254;10.352;2022-09-01T05:41:53;4.50;;;4.10;;
7047;SDS011;3565;53.254;10.352;2022-09-01T05:44:23;4.33;;;3.93;;
7047;SDS011;3565;53.254;10.352;2022-09-01T05:46:51;5.70;;;4.10;;
7047;SDS011;3565;53.254;10.352;2022-09-01T05:49:21;4.60;;;4.20;;
7047;SDS011;3565;53.254;10.352;2022-09-01T05:51:51;6.33;;;5.10;;
7047;SDS011;3565;53.254;10.352;2022-09-01T05:54:22;7.70;;;5.83;;
7047;SDS011;3565;53.254;10.352;2022-09-01T05:56:53;5.27;;;4.83;;
7047;SDS011;3565;53.254;10.352;2022-09-01T05:59:23;8.27;;;4.60;;
7047;SDS011;3565;53.254;10.352;2022-09-01T06:01:52;4.90;;;4.10;;
7047;SDS011;3565;53.254;10.352;2022-09-01T06:04:22;4.63;;;4.17;;
7047;SDS011;3565;53.254;10.352;2022-09-01T06:06:51;4.27;;;3.73;;
7047;SDS011;3565;53.254;10.352;2022-09-01T06:09:21;5.57;;;4.00;;
7047;SDS011;3565;53.254;10.352;2022-09-01T06:11:49;4.80;;;3.97;;
7047;SDS011;3565;53.254;10.352;2022-09-01T06:14:19;3.83;;;3.43;;
7047;SDS011;3565;53.254;10.352;2022-09-01T06:16:48;4.20;;;3.80;;
7047;SDS011;3565;53.254;10.352;2022-09-01T06:19:19;3.73;;;3.43;;
7047;SDS011;3565;53.254;10.352;2022-09-01T06:21:47;4.07;;;3.67;;
7047;SDS011;3565;53.254;10.352;2022-09-01T06:24:16;3.97;;;3.57;;
7047;SDS011;3565;53.254;10.352;2022-09-01T06:26:44;4.10;;;3.30;;
7047;SDS011;3565;53.254;10.352;2022-09-01T06:29:12;3.83;;;3.10;;
7047;SDS011;3565;53.254;10.352;2022-09-01T06:31:42;3.47;;;3.17;;
7047;SDS011;3565;53.254;10.352;2022-09-01T06:34:11;3.97;;;3.20;;
7047;SDS011;3565;53.254;10.352;2022-09-01T06:36:42;3.87;;;2.87;;
7047;SDS011;3565;53.254;10.352;2022-09-01T06:39:12;4.37;;;2.80;;
7047;SDS011;3565;53.254;10.352;2022-09-01T06:41:42;3.60;;;2.70;;
7047;SDS011;3565;53.254;10.352;2022-09-01T06:44:13;3.50;;;2.70;;
7047;SDS011;3565;53.254;10.352;2022-09-01T06:46:41;3.03;;;2.53;;
7047;SDS011;3565;53.254;10.352;2022-09-01T06:49:09;5.03;;;2.40;;
7047;SDS011;3565;53.254;10.352;2022-09-01T06:51:38;3.80;;;2.33;;
7047;SDS011;3565;53.254;10.352;2022-09-01T06:54:06;2.00;;;1.80;;
7047;SDS011;3565;53.254;10.352;2022-09-01T06:56:36;1.80;;;1.70;;
7047;SDS011;3565;53.254;10.352;2022-09-01T06:59:05;2.63;;;1.80;;
7047;SDS011;3565;53.254;10.352;2022-09-01T07:01:34;2.37;;;1.70;;
7047;SDS011;3565;53.254;10.352;2022-09-01T07:04:04;2.53;;;1.70;;
7047;SDS011;3565;53.254;10.352;2022-09-01T07:06:32;2.53;;;1.40;;
7047;SDS011;3565;53.254;10.352;2022-09-01T07:09:03;1.67;;;1.50;;
7047;SDS011;3565;53.254;10.352;2022-09-01T07:11:32;1.63;;;1.50;;
7047;SDS011;3565;53.254;10.352;2022-09-01T07:14:03;1.77;;;1.40;;
7047;SDS011;3565;53.254;10.352;2022-09-01T07:16:33;3.17;;;1.40;;
7047;SDS011;3565;53.254;10.352;2022-09-01T07:19:03;1.43;;;1.30;;
7047;SDS011;3565;53.254;10.352;2022-09-01T07:21:32;2.10;;;1.30;;
7047;SDS011;3565;53.254;10.352;2022-09-01T07:24:01;1.90;;;1.30;;
7047;SDS011;3565;53.254;10.352;2022-09-01T07:26:30;1.30;;;1.10;;
7047;SDS011;3565;53.254;10.352;2022-09-01T07:28:59;1.87;;;1.10;;
7047;SDS011;3565;53.254;10.352;2022-09-01T07:31:30;1.20;;;1.10;;
7047;SDS011;3565;53.254;10.352;2022-09-01T07:34:02;1.43;;;1.20;;
7047;SDS011;3565;53.254;10.352;2022-09-01T07:36:32;1.73;;;1.27;;
7047;SDS011;3565;53.254;10.352;2022-09-01T07:39:03;2.37;;;1.20;;
7047;SDS011;3565;53.254;10.352;2022-09-01T07:41:32;2.03;;;1.20;;
7047;SDS011;3565;53.254;10.352;2022-09-01T07:44:04;1.83;;;1.20;;
7047;SDS011;3565;53.254;10.352;2022-09-01T07:46:34;2.80;;;1.20;;
7047;SDS011;3565;53.254;10.352;2022-09-01T07:49:03;2.63;;;1.20;;
7047;SDS011;3565;53.254;10.352;2022-09-01T07:51:32;1.57;;;1.10;;
7047;SDS011;3565;53.254;10.352;2022-09-01T07:54:01;1.70;;;1.13;;
7047;SDS011;3565;53.254;10.352;2022-09-01T07:56:29;1.27;;;1.17;;
7047;SDS011;3565;53.254;10.352;2022-09-01T07:58:58;2.40;;;1.20;;
7047;SDS011;3565;53.254;10.352;2022-09-01T08:01:28;3.00;;;1.47;;
7047;SDS011;3565;53.254;10.352;2022-09-01T08:03:57;2.03;;;1.23;;
7047;SDS011;3565;53.254;10.352;2022-09-01T08:06:28;1.67;;;1.10;;
7047;SDS011;3565;53.254;10.352;2022-09-01T08:08:57;1.77;;;1.10;;
7047;SDS011;3565;53.254;10.352;2022-09-01T08:11:27;1.30;;;1.20;;
7047;SDS011;3565;53.254;10.352;2022-09-01T08:13:57;2.00;;;1.20;;
7047;SDS011;3565;53.254;10.352;2022-09-01T08:16:26;1.40;;;0.93;;
7047;SDS011;3565;53.254;10.352;2022-09-01T08:18:55;1.10;;;1.00;;
7047;SDS011;3565;53.254;10.352;2022-09-01T08:21:24;2.20;;;1.03;;
7047;SDS011;3565;53.254;10.352;2022-09-01T08:23:53;1.67;;;0.90;;
7047;SDS011;3565;53.254;10.352;2022-09-01T08:26:23;2.03;;;0.80;;
7047;SDS011;3565;53.254;10.352;2022-09-01T08:28:52;0.80;;;0.80;;
7047;SDS011;3565;53.254;10.352;2022-09-01T08:31:21;1.13;;;0.90;;
7047;SDS011;3565;53.254;10.352;2022-09-01T08:33:49;2.13;;;0.93;;
7047;SDS011;3565;53.254;10.352;2022-09-01T08:36:19;0.87;;;0.80;;
7047;SDS011;3565;53.254;10.352;2022-09-01T08:38:48;1.60;;;1.10;;
7047;SDS011;3565;53.254;10.352;2022-09-01T08:41:17;1.07;;;0.90;;
7047;SDS011;3565;53.254;10.352;2022-09-01T08:43:56;1.40;;;0.90;;
7047;SDS011;3565;53.254;10.352;2022-09-01T08:46:26;2.40;;;0.80;;
7047;SDS011;3565;53.254;10.352;2022-09-01T08:48:55;1.90;;;0.85;;
7047;SDS011;3565;53.254;10.352;2022-09-01T08:51:26;1.80;;;0.97;;
7047;SDS011;3565;53.254;10.352;2022-09-01T08:53:56;1.03;;;0.80;;
7047;SDS011;3565;53.254;10.352;2022-09-01T08:56:25;1.60;;;0.80;;
7047;SDS011;3565;53.254;10.352;2022-09-01T08:58:53;1.43;;;0.90;;
7047;SDS011;3565;53.254;10.352;2022-09-01T09:01:24;1.07;;;0.80;;
7047;SDS011;3565;53.254;10.352;2022-09-01T09:03:59;3.90;;;0.93;;
7047;SDS011;3565;53.254;10.352;2022-09-01T09:06:28;2.33;;;1.13;;
7047;SDS011;3565;53.254;10.352;2022-09-01T09:08:57;2.40;;;1.00;;
7047;SDS011;3565;53.254;10.352;2022-09-01T09:11:38;1.37;;;0.90;;
7047;SDS011;3565;53.254;10.352;2022-09-01T09:14:08;0.80;;;0.80;;
7047;SDS011;3565;53.254;10.352;2022-09-01T09:16:38;1.30;;;0.93;;
7047;SDS011;3565;53.254;10.352;2022-09-01T09:19:09;1.30;;;0.90;;
7047;SDS011;3565;53.254;10.352;2022-09-01T09:21:38;1.13;;;0.87;;
7047;SDS011;3565;53.254;10.352;2022-09-01T09:24:09;1.13;;;0.90;;
7047;SDS011;3565;53.254;10.352;2022-09-01T09:26:38;1.60;;;0.90;;
7047;SDS011;3565;53.254;10.352;2022-09-01T09:29:07;1.83;;;0.90;;
7047;SDS011;3565;53.254;10.352;2022-09-01T09:31:37;0.87;;;0.80;;
7047;SDS011;3565;53.254;10.352;2022-09-01T09:34:14;0.80;;;0.80;;
7047;SDS011;3565;53.254;10.352;2022-09-01T09:36:42;1.10;;;1.00;;
7047;SDS011;3565;53.254;10.352;2022-09-01T09:39:13;0.80;;;0.80;;
7047;SDS011;3565;53.254;10.352;2022-09-01T09:41:43;1.30;;;1.00;;
7047;SDS011;3565;53.254;10.352;2022-09-01T09:44:18;0.90;;;0.90;;
7047;SDS011;3565;53.254;10.352;2022-09-01T09:46:47;0.90;;;0.90;;
7047;SDS011;3565;53.254;10.352;2022-09-01T09:49:17;1.10;;;1.00;;
7047;SDS011;3565;53.254;10.352;2022-09-01T09:51:47;1.13;;;0.90;;
7047;SDS011;3565;53.254;10.352;2022-09-01T09:54:21;0.80;;;0.80;;
7047;SDS011;3565;53.254;10.352;2022-09-01T09:57:01;1.37;;;0.97;;
7047;SDS011;3565;53.254;10.352;2022-09-01T09:59:26;1.10;;;0.97;;
7047;SDS011;3565;53.254;10.352;2022-09-01T10:01:54;1.83;;;1.00;;
7047;SDS011;3565;53.254;10.352;2022-09-01T10:04:31;0.90;;;0.90;;
7047;SDS011;3565;53.254;10.352;2022-09-01T10:06:59;1.13;;;1.00;;
7047;SDS011;3565;53.254;10.352;2022-09-01T10:09:34;0.80;;;0.80;;
7047;SDS011;3565;53.254;10.352;2022-09-01T10:12:04;0.80;;;0.80;;
7047;SDS011;3565;53.254;10.352;2022-09-01T10:14:34;1.93;;;0.90;;
7047;SDS011;3565;53.254;10.352;2022-09-01T10:17:05;1.97;;;1.00;;
7047;SDS011;3565;53.254;10.352;2022-09-01T10:19:34;0.80;;;0.80;;
7047;SDS011;3565;53.254;10.352;2022-09-01T10:22:05;0.80;;;0.80;;
7047;SDS011;3565;53.254;10.352;2022-09-01T10:24:36;1.10;;;1.00;;
7047;SDS011;3565;53.254;10.352;2022-09-01T10:27:06;1.30;;;1.00;;
7047;SDS011;3565;53.254;10.352;2022-09-01T10:29:36;1.50;;;1.00;;
7047;SDS011;3565;53.254;10.352;2022-09-01T10:32:07;4.37;;;1.00;;
7047;SDS011;3565;53.254;10.352;2022-09-01T10:34:36;2.10;;;1.00;;
7047;SDS011;3565;53.254;10.352;2022-09-01T10:37:05;1.07;;;0.98;;
7047;SDS011;3565;53.254;10.352;2022-09-01T10:39:34;1.27;;;1.00;;
7047;SDS011;3565;53.254;10.352;2022-09-01T10:42:07;1.40;;;0.90;;
7047;SDS011;3565;53.254;10.352;2022-09-01T10:44:35;0.90;;;0.90;;
7047;SDS011;3565;53.254;10.352;2022-09-01T10:47:09;2.65;;;1.05;;
7047;SDS011;3565;53.254;10.352;2022-09-01T10:55:13;3.15;;;1.00;;
7047;SDS011;3565;53.254;10.352;2022-09-01T10:57:44;0.80;;;0.80;;
7047;SDS011;3565;53.254;10.352;2022-09-01T11:00:29;0.90;;;0.90;;
7047;SDS011;3565;53.254;10.352;2022-09-01T11:08:43;1.67;;;0.80;;
7047;SDS011;3565;53.254;10.352;2022-09-01T11:11:20;1.53;;;0.93;;
7047;SDS011;3565;53.254;10.352;2022-09-01T11:13:46;1.30;;;1.10;;
7047;SDS011;3565;53.254;10.352;2022-09-01T11:16:26;3.23;;;0.87;;
7047;SDS011;3565;53.254;10.352;2022-09-01T11:18:56;2.20;;;0.90;;
7047;SDS011;3565;53.254;10.352;2022-09-01T11:21:28;1.73;;;0.90;;
7047;SDS011;3565;53.254;10.352;2022-09-01T11:26:46;1.23;;;0.97;;
7047;SDS011;3565;53.254;10.352;2022-09-01T11:32:06;0.80;;;0.80;;
7047;SDS011;3565;53.254;10.352;2022-09-01T11:34:35;1.30;;;1.20;;
7047;SDS011;3565;53.254;10.352;2022-09-01T11:37:09;1.20;;;1.10;;
7047;SDS011;3565;53.254;10.352;2022-09-01T11:39:39;1.70;;;1.10;;
7047;SDS011;3565;53.254;10.352;2022-09-01T11:42:10;1.20;;;1.10;;
7047;SDS011;3565;53.254;10.352;2022-09-01T11:44:41;1.03;;;0.90;;
7047;SDS011;3565;53.254;10.352;2022-09-01T11:47:17;1.17;;;1.00;;
7047;SDS011;3565;53.254;10.352;2022-09-01T11:49:48;1.73;;;1.00;;
7047;SDS011;3565;53.254;10.352;2022-09-01T11:52:19;2.70;;;1.00;;
7047;SDS011;3565;53.254;10.352;2022-09-01T11:54:47;1.83;;;1.00;;
7047;SDS011;3565;53.254;10.352;2022-09-01T11:57:17;2.00;;;1.00;;
7047;SDS011;3565;53.254;10.352;2022-09-01T11:59:46;2.47;;;1.00;;
7047;SDS011;3565;53.254;10.352;2022-09-01T12:02:19;1.20;;;0.90;;
7047;SDS011;3565;53.254;10.352;2022-09-01T12:04:48;2.00;;;1.20;;
7047;SDS011;3565;53.254;10.352;2022-09-01T12:07:28;0.90;;;0.90;;
7047;SDS011;3565;53.254;10.352;2022-09-01T12:09:57;1.10;;;0.93;;
7047;SDS011;3565;53.254;10.352;2022-09-01T12:12:27;2.30;;;1.00;;
7047;SDS011;3565;53.254;10.352;2022-09-01T12:14:56;1.40;;;1.00;;
7047;SDS011;3565;53.254;10.352;2022-09-01T12:17:25;1.47;;;1.00;;
7047;SDS011;3565;53.254;10.352;2022-09-01T12:19:53;1.10;;;1.00;;
7047;SDS011;3565;53.254;10.352;2022-09-01T12:22:23;1.00;;;0.83;;
7047;SDS011;3565;53.254;10.352;2022-09-01T12:24:53;0.93;;;0.90;;
7047;SDS011;3565;53.254;10.352;2022-09-01T12:27:21;1.20;;;0.80;;
7047;SDS011;3565;53.254;10.352;2022-09-01T12:29:50;1.90;;;0.70;;
7047;SDS011;3565;53.254;10.352;2022-09-01T12:32:18;0.83;;;0.83;;
7047;SDS011;3565;53.254;10.352;2022-09-01T12:34:56;1.03;;;0.93;;
7047;SDS011;3565;53.254;10.352;2022-09-01T12:37:21;1.07;;;0.90;;
7047;SDS011;3565;53.254;10.352;2022-09-01T12:39:50;1.43;;;1.00;;
7047;SDS011;3565;53.254;10.352;2022-09-01T12:42:24;1.23;;;0.93;;
7047;SDS011;3565;53.254;10.352;2022-09-01T12:44:58;1.03;;;0.93;;
7047;SDS011;3565;53.254;10.352;2022-09-01T12:47:45;1.77;;;0.93;;
7047;SDS011;3565;53.254;10.352;2022-09-01T12:53:00;1.55;;;1.10;;
7047;SDS011;3565;53.254;10.352;2022-09-01T12:55:30;3.60;;;1.75;;
7047;SDS011;3565;53.254;10.352;2022-09-01T13:01:03;0.80;;;0.80;;
7047;SDS011;3565;53.254;10.352;2022-09-01T13:03:35;1.22;;;0.80;;
7047;SDS011;3565;53.254;10.352;2022-09-01T13:06:05;0.78;;;0.78;;
7047;SDS011;3565;53.254;10.352;2022-09-01T13:08:35;1.82;;;0.80;;
7047;SDS011;3565;53.254;10.352;2022-09-01T13:11:05;1.95;;;0.80;;
7047;SDS011;3565;53.254;10.352;2022-09-01T13:13:36;2.85;;;0.93;;
7047;SDS011;3565;53.254;10.352;2022-09-01T13:16:06;2.67;;;0.85;;
7047;SDS011;3565;53.254;10.352;2022-09-01T13:18:38;1.02;;;0.93;;
7047;SDS011;3565;53.254;10.352;2022-09-01T13:21:08;3.17;;;1.10;;
7047;SDS011;3565;53.254;10.352;2022-09-01T13:23:38;3.58;;;1.10;;
7047;SDS011;3565;53.254;10.352;2022-09-01T13:26:09;1.67;;;0.72;;
7047;SDS011;3565;53.254;10.352;2022-09-01T13:31:28;0.70;;;0.70;;
7047;SDS011;3565;53.254;10.352;2022-09-01T13:33:57;1.63;;;0.90;;
7047;SDS011;3565;53.254;10.352;2022-09-01T13:36:27;2.47;;;1.07;;
7047;SDS011;3565;53.254;10.352;2022-09-01T13:39:02;2.80;;;1.00;;
7047;SDS011;3565;53.254;10.352;2022-09-01T13:41:31;2.67;;;1.00;;
7047;SDS011;3565;53.254;10.352;2022-09-01T13:44:00;1.43;;;1.03;;
7047;SDS011;3565;53.254;10.352;2022-09-01T13:46:31;1.10;;;1.00;;
7047;SDS011;3565;53.254;10.352;2022-09-01T13:49:00;1.77;;;1.00;;
7047;SDS011;3565;53.254;10.352;2022-09-01T13:51:30;1.50;;;1.07;;
7047;SDS011;3565;53.254;10.352;2022-09-01T13:56:49;3.77;;;1.10;;
7047;SDS011;3565;53.254;10.352;2022-09-01T13:59:20;0.90;;;0.90;;
7047;SDS011;3565;53.254;10.352;2022-09-01T14:01:49;1.30;;;1.00;;
7047;SDS011;3565;53.254;10.352;2022-09-01T14:04:19;1.17;;;0.90;;
7047;SDS011;3565;53.254;10.352;2022-09-01T14:06:48;2.50;;;1.00;;
7047;SDS011;3565;53.254;10.352;2022-09-01T14:09:18;1.83;;;1.30;;
7047;SDS011;3565;53.254;10.352;2022-09-01T14:11:47;2.63;;;1.00;;
7047;SDS011;3565;53.254;10.352;2022-09-01T14:14:31;1.70;;;0.97;;
7047;SDS011;3565;53.254;10.352;2022-09-01T14:17:01;8.57;;;5.17;;
7047;SDS011;3565;53.254;10.352;2022-09-01T14:19:32;23.60;;;14.60;;
7047;SDS011;3565;53.254;10.352;2022-09-01T14:22:01;1.60;;;1.50;;
7047;SDS011;3565;53.254;10.352;2022-09-01T14:24:32;1.30;;;1.10;;
7047;SDS011;3565;53.254;10.352;2022-09-01T14:27:02;1.10;;;1.03;;
7047;SDS011;3565;53.254;10.352;2022-09-01T14:29:31;14.83;;;4.10;;
7047;SDS011;3565;53.254;10.352;2022-09-01T14:32:02;1.67;;;1.13;;
7047;SDS011;3565;53.254;10.352;2022-09-01T14:34:33;1.00;;;0.90;;
7047;SDS011;3565;53.254;10.352;2022-09-01T14:37:02;6.10;;;3.70;;
7047;SDS011;3565;53.254;10.352;2022-09-01T14:39:32;3.50;;;2.70;;
7047;SDS011;3565;53.254;10.352;2022-09-01T14:42:03;1.30;;;1.20;;
7047;SDS011;3565;53.254;10.352;2022-09-01T14:44:35;1.47;;;1.10;;
7047;SDS011;3565;53.254;10.352;2022-09-01T14:47:05;2.53;;;1.20;;
7047;SDS011;3565;53.254;10.352;2022-09-01T14:49:37;1.95;;;1.00;;
7047;SDS011;3565;53.254;10.352;2022-09-01T14:52:07;3.80;;;1.00;;
7047;SDS011;3565;53.254;10.352;2022-09-01T14:54:37;1.77;;;1.10;;
7047;SDS011;3565;53.254;10.352;2022-09-01T14:57:08;2.43;;;1.20;;
7047;SDS011;3565;53.254;10.352;2022-09-01T14:59:39;1.80;;;1.30;;
7047;SDS011;3565;53.254;10.352;2022-09-01T15:02:09;2.33;;;1.13;;
7047;SDS011;3565;53.254;10.352;2022-09-01T15:04:39;1.87;;;1.03;;
7047;SDS011;3565;53.254;10.352;2022-09-01T15:07:10;1.40;;;1.00;;
7047;SDS011;3565;53.254;10.352;2022-09-01T15:09:38;1.97;;;1.10;;
7047;SDS011;3565;53.254;10.352;2022-09-01T15:12:08;2.73;;;1.20;;
7047;SDS011;3565;53.254;10.352;2022-09-01T15:14:37;1.90;;;1.10;;
7047;SDS011;3565;53.254;10.352;2022-09-01T15:17:06;1.70;;;1.10;;
7047;SDS011;3565;53.254;10.352;2022-09-01T15:19:36;1.17;;;1.07;;
7047;SDS011;3565;53.254;10.352;2022-09-01T15:22:06;1.47;;;1.20;;
7047;SDS011;3565;53.254;10.352;2022-09-01T15:24:36;1.73;;;0.90;;
7047;SDS011;3565;53.254;10.352;2022-09-01T15:27:05;1.67;;;1.13;;
7047;SDS011;3565;53.254;10.352;2022-09-01T15:29:37;1.20;;;1.10;;
7047;SDS011;3565;53.254;10.352;2022-09-01T15:32:08;1.83;;;1.00;;
7047;SDS011;3565;53.254;10.352;2022-09-01T15:34:37;1.00;;;0.90;;
7047;SDS011;3565;53.254;10.352;2022-09-01T15:37:07;1.43;;;1.10;;
7047;SDS011;3565;53.254;10.352;2022-09-01T15:39:37;1.10;;;1.00;;
7047;SDS011;3565;53.254;10.352;2022-09-01T15:42:07;1.07;;;0.97;;
7047;SDS011;3565;53.254;10.352;2022-09-01T15:44:37;1.00;;;0.90;;
7047;SDS011;3565;53.254;10.352;2022-09-01T15:47:07;1.33;;;0.90;;